createdAt,value
2019-02-20T00:00:03.685Z,99.99
2019-02-20T00:01:04.953Z,99.87
2019-02-20T00:02:06.723Z,99.99
2019-02-20T00:03:06.935Z,99.49
2019-02-20T00:04:07.195Z,99.97
2019-02-20T00:05:07.647Z,99.68
2019-02-20T00:06:08.914Z,99.97
2019-02-20T00:07:09.343Z,99.99
2019-02-20T00:08:10.623Z,99.97
2019-02-20T00:09:11.216Z,99.99
2019-02-20T00:10:11.489Z,99.99
2019-02-20T00:11:12.178Z,99.99
2019-02-20T00:12:12.908Z,99.97
2019-02-20T00:13:13.326Z,99.99
2019-02-20T00:14:14.299Z,99.99
2019-02-20T00:15:15.445Z,99.97
2019-02-20T00:16:15.857Z,99.97
2019-02-20T00:17:16.837Z,99.99
2019-02-20T00:18:16.806Z,99.99
2019-02-20T00:19:17.789Z,99.77
2019-02-20T00:20:18.560Z,99.99
2019-02-20T00:21:18.807Z,99.97
2019-02-20T00:22:19.798Z,99.99
2019-02-20T00:23:20.206Z,99.99
2019-02-20T00:24:20.736Z,99.99
2019-02-20T00:25:21.170Z,99.99
2019-02-20T00:26:22.417Z,99.99
2019-02-20T00:27:23.404Z,99.99
2019-02-20T00:28:24.381Z,99.99
2019-02-20T00:29:26.067Z,99.99
2019-02-20T00:30:26.040Z,99.87
2019-02-20T00:31:27.156Z,99.99
2019-02-20T00:32:27.848Z,99.99
2019-02-20T00:33:29.242Z,99.99
2019-02-20T00:34:30.217Z,99.99
2019-02-20T00:35:31.472Z,99.99
2019-02-20T00:36:31.452Z,99.99
2019-02-20T00:37:32.185Z,99.99
2019-02-20T00:38:33.717Z,99.99
2019-02-20T00:39:33.690Z,99.99
2019-02-20T00:40:34.384Z,99.99
2019-02-20T00:41:35.719Z,99.99
2019-02-20T00:42:35.874Z,99.99
2019-02-20T00:43:36.404Z,99.99
2019-02-20T00:44:37.847Z,99.99
2019-02-20T00:45:39.277Z,99.91
2019-02-20T00:46:39.976Z,99.21
2019-02-20T00:47:40.944Z,99.99
2019-02-20T00:48:41.944Z,99.99
2019-02-20T00:49:42.358Z,99.99
2019-02-20T00:50:43.340Z,99.99
2019-02-20T00:51:44.354Z,98.92
2019-02-20T00:52:51.394Z,99.99
2019-02-20T00:52:57.095Z,99.99
2019-02-20T00:53:57.645Z,99.99
2019-02-20T00:54:58.337Z,99.99
2019-02-20T00:55:58.881Z,99.99
2019-02-20T00:56:59.875Z,99.99
2019-02-20T00:58:00.884Z,99.99
2019-02-20T00:59:01.615Z,99.99
2019-02-20T01:00:02.170Z,99.99
2019-02-20T01:01:02.585Z,99.99
2019-02-20T01:02:02.947Z,99.99
2019-02-20T01:03:03.654Z,99.99
2019-02-20T01:04:04.780Z,99.99
2019-02-20T01:05:06.124Z,99.99
2019-02-20T01:06:06.540Z,99.99
2019-02-20T01:07:06.721Z,99.99
2019-02-20T01:08:07.470Z,99.99
2019-02-20T01:09:08.175Z,99.99
2019-02-20T01:10:08.433Z,99.99
2019-02-20T01:11:09.683Z,99.99
2019-02-20T01:12:10.121Z,99.99
2019-02-20T01:13:11.366Z,99.99
2019-02-20T01:14:12.237Z,99.99
2019-02-20T01:15:12.656Z,99.99
2019-02-20T01:16:13.641Z,99.99
2019-02-20T01:17:13.623Z,99.99
2019-02-20T01:18:14.931Z,99.99
2019-02-20T01:19:14.646Z,99.99
2019-02-20T01:20:15.951Z,99.99
2019-02-20T01:21:16.684Z,99.99
2019-02-20T01:22:17.374Z,99.99
2019-02-20T01:23:18.370Z,99.99
2019-02-20T01:24:18.643Z,99.99
2019-02-20T01:25:20.199Z,99.99
2019-02-20T01:26:21.168Z,99.99
2019-02-20T01:27:21.872Z,99.99
2019-02-20T01:28:22.877Z,99.99
2019-02-20T01:29:23.612Z,99.99
2019-02-20T01:30:24.578Z,99.99
2019-02-20T01:31:25.548Z,99.99
2019-02-20T01:32:25.967Z,99.44
2019-02-20T01:33:26.779Z,99.99
2019-02-20T01:34:27.474Z,99.99
2019-02-20T01:35:28.449Z,99.99
2019-02-20T01:36:29.470Z,99.99
2019-02-20T01:37:30.163Z,99.99
2019-02-20T01:38:30.587Z,99.99
2019-02-20T01:39:32.388Z,99.99
2019-02-20T01:40:32.079Z,99.44
2019-02-20T01:41:33.066Z,99.99
2019-02-20T01:42:33.204Z,99.99
2019-02-20T01:43:34.021Z,99.99
2019-02-20T01:44:34.904Z,99.73
2019-02-20T01:45:35.605Z,99.82
2019-02-20T01:46:36.877Z,99.91
2019-02-20T01:47:38.155Z,99.99
2019-02-20T01:48:38.578Z,99.99
2019-02-20T01:49:39.279Z,99.99
2019-02-20T01:50:39.707Z,99.99
2019-02-20T01:51:40.690Z,99.99
2019-02-20T01:52:40.835Z,99.99
2019-02-20T01:53:42.090Z,99.99
2019-02-20T01:54:42.842Z,99.99
2019-02-20T01:55:43.840Z,99.99
2019-02-20T01:56:44.269Z,99.99
2019-02-20T01:57:44.692Z,99.35
2019-02-20T01:58:45.737Z,99.82
2019-02-20T01:59:45.708Z,99.73
2019-02-20T02:00:47.120Z,99.77
2019-02-20T02:01:48.096Z,98.73
2019-02-20T02:02:49.106Z,98.82
2019-02-20T02:03:49.251Z,98.35
2019-02-20T02:04:50.588Z,98.63
2019-02-20T02:05:50.569Z,99.11
2019-02-20T02:06:51.284Z,99.01
2019-02-20T02:07:52.279Z,99.11
2019-02-20T02:08:53.557Z,99.01
2019-02-20T02:09:54.266Z,98.54
2019-02-20T02:10:55.234Z,98.82
2019-02-20T02:11:55.930Z,99.87
2019-02-20T02:12:56.643Z,99.63
2019-02-20T02:13:57.071Z,99.68
2019-02-20T02:14:58.482Z,99.63
2019-02-20T02:15:59.554Z,99.44
2019-02-20T02:17:00.824Z,99.73
2019-02-20T02:18:00.812Z,99.73
2019-02-20T02:19:01.515Z,99.99
2019-02-20T02:20:02.367Z,99.99
2019-02-20T02:21:03.071Z,99.99
2019-02-20T02:22:04.043Z,99.63
2019-02-20T02:23:05.020Z,99.73
2019-02-20T02:24:05.758Z,99.96
2019-02-20T02:25:07.056Z,99.2
2019-02-20T02:26:12.073Z,99.87
2019-02-20T02:27:12.823Z,99.49
2019-02-20T02:28:13.561Z,99.49
2019-02-20T02:29:14.268Z,99.2
2019-02-20T02:30:15.104Z,99.77
2019-02-20T02:31:15.411Z,99.87
2019-02-20T02:32:16.025Z,99.2
2019-02-20T02:33:17.077Z,99.49
2019-02-20T02:34:18.057Z,98.73
2019-02-20T02:35:18.810Z,99.11
2019-02-20T02:36:20.070Z,99.77
2019-02-20T02:37:21.209Z,99.77
2019-02-20T02:38:21.601Z,99.99
2019-02-20T02:39:21.847Z,99.99
2019-02-20T02:40:22.560Z,99.99
2019-02-20T02:41:23.863Z,99.99
2019-02-20T02:42:24.833Z,99.99
2019-02-20T02:43:25.826Z,99.99
2019-02-20T02:44:27.423Z,99.99
2019-02-20T02:45:27.788Z,99.99
2019-02-20T02:46:29.160Z,99.99
2019-02-20T02:47:30.154Z,99.99
2019-02-20T02:48:30.851Z,99.99
2019-02-20T02:49:31.906Z,99.99
2019-02-20T02:50:32.737Z,99.99
2019-02-20T02:51:32.720Z,99.99
2019-02-20T02:52:34.257Z,99.99
2019-02-20T02:53:35.274Z,99.99
2019-02-20T02:54:35.556Z,99.99
2019-02-20T02:55:36.060Z,99.99
2019-02-20T02:56:37.326Z,99.99
2019-02-20T02:57:38.368Z,99.99
2019-02-20T02:58:38.800Z,99.99
2019-02-20T02:59:40.073Z,99.99
2019-02-20T03:00:40.600Z,99.99
2019-02-20T03:01:41.874Z,99.99
2019-02-20T03:02:42.839Z,99.99
2019-02-20T03:03:43.836Z,99.99
2019-02-20T03:04:44.834Z,99.99
2019-02-20T03:05:45.556Z,99.99
2019-02-20T03:06:46.377Z,99.96
2019-02-20T03:07:46.650Z,99.49
2019-02-20T03:08:47.190Z,99.68
2019-02-20T03:09:48.196Z,99.99
2019-02-20T03:10:48.522Z,99.87
2019-02-20T03:11:49.207Z,99.96
2019-02-20T03:12:50.212Z,99.49
2019-02-20T03:13:50.928Z,98.82
2019-02-20T03:14:51.903Z,99.39
2019-02-20T03:15:52.608Z,98.25
2019-02-20T03:16:53.026Z,99.01
2019-02-20T03:17:53.753Z,98.44
2019-02-20T03:18:54.447Z,99.3
2019-02-20T03:19:55.170Z,98.16
2019-02-20T03:20:56.148Z,98.35
2019-02-20T03:21:56.683Z,98.44
2019-02-20T03:22:56.957Z,98.54
2019-02-20T03:23:57.657Z,98.54
2019-02-20T03:24:57.744Z,97.78
2019-02-20T03:25:58.484Z,98.63
2019-02-20T03:26:58.925Z,98.44
2019-02-20T03:27:59.894Z,98.54
2019-02-20T03:29:00.161Z,98.54
2019-02-20T03:30:01.008Z,98.73
2019-02-20T03:31:01.603Z,98.73
2019-02-20T03:32:01.731Z,98.92
2019-02-20T03:33:02.849Z,98.92
2019-02-20T03:34:04.224Z,98.82
2019-02-20T03:35:04.083Z,99.01
2019-02-20T03:36:05.507Z,98.92
2019-02-20T03:37:06.484Z,99.2
2019-02-20T03:38:07.190Z,98.92
2019-02-20T03:39:08.450Z,98.92
2019-02-20T03:40:09.157Z,98.54
2019-02-20T03:41:09.815Z,99.3
2019-02-20T03:42:10.793Z,99.3
2019-02-20T03:43:11.921Z,99.11
2019-02-20T03:44:11.920Z,99.39
2019-02-20T03:45:12.908Z,99.3
2019-02-20T03:46:13.647Z,98.82
2019-02-20T03:47:14.641Z,99.39
2019-02-20T03:48:15.337Z,99.2
2019-02-20T03:49:16.334Z,99.3
2019-02-20T03:50:16.759Z,99.2
2019-02-20T03:51:17.477Z,98.44
2019-02-20T03:52:19.010Z,98.63
2019-02-20T03:53:19.984Z,98.54
2019-02-20T03:54:20.696Z,97.88
2019-02-20T03:55:21.392Z,97.54
2019-02-20T03:56:22.672Z,97.45
2019-02-20T03:57:23.375Z,97.45
2019-02-20T03:58:23.631Z,96.59
2019-02-20T03:59:24.322Z,96.69
2019-02-20T04:00:24.618Z,96.41
2019-02-20T04:01:25.308Z,96.69
2019-02-20T04:02:27.123Z,96.03
2019-02-20T04:03:28.239Z,95.84
2019-02-20T04:04:28.665Z,96.03
2019-02-20T04:05:29.653Z,96.59
2019-02-20T04:06:30.114Z,96.03
2019-02-20T04:07:31.566Z,95.26
2019-02-20T04:08:32.126Z,96.12
2019-02-20T04:09:32.931Z,96.12
2019-02-20T04:10:33.189Z,96.22
2019-02-20T04:11:34.158Z,96.12
2019-02-20T04:12:34.912Z,95.93
2019-02-20T04:13:35.327Z,96.31
2019-02-20T04:14:36.018Z,96.03
2019-02-20T04:15:37.705Z,96.22
2019-02-20T04:16:38.267Z,95.26
2019-02-20T04:17:38.698Z,96.31
2019-02-20T04:18:39.948Z,95.55
2019-02-20T04:19:39.922Z,95.84
2019-02-20T04:20:40.908Z,95.07
2019-02-20T04:21:41.058Z,94.7
2019-02-20T04:22:42.334Z,95.36
2019-02-20T04:23:42.853Z,95.74
2019-02-20T04:24:43.844Z,95.36
2019-02-20T04:25:44.373Z,94.79
2019-02-20T04:26:45.425Z,94.89
2019-02-20T04:27:46.847Z,95.36
2019-02-20T04:28:47.556Z,95.36
2019-02-20T04:29:48.787Z,94.51
2019-02-20T04:30:48.757Z,95.17
2019-02-20T04:31:49.190Z,94.98
2019-02-20T04:32:49.606Z,95.26
2019-02-20T04:33:49.827Z,95.55
2019-02-20T04:34:50.573Z,95.36
2019-02-20T04:35:51.340Z,95.93
2019-02-20T04:36:52.054Z,96.31
2019-02-20T04:37:52.745Z,96.03
2019-02-20T04:38:54.549Z,96.41
2019-02-20T04:39:54.840Z,96.69
2019-02-20T04:40:55.834Z,96.59
2019-02-20T04:41:57.110Z,96.78
2019-02-20T04:43:00.096Z,96.69
2019-02-20T04:44:00.344Z,96.78
2019-02-20T04:45:01.120Z,96.41
2019-02-20T04:46:02.148Z,96.22
2019-02-20T04:47:03.414Z,96.88
2019-02-20T04:48:03.948Z,96.5
2019-02-20T04:49:04.765Z,96.97
2019-02-20T04:50:04.733Z,96.5
2019-02-20T04:51:05.420Z,96.97
2019-02-20T04:52:06.139Z,97.45
2019-02-20T04:53:06.551Z,96.97
2019-02-20T04:54:14.985Z,96.97
2019-02-20T04:54:20.570Z,96.97
2019-02-20T04:55:20.727Z,97.07
2019-02-20T04:56:21.410Z,96.97
2019-02-20T04:57:22.398Z,96.59
2019-02-20T04:58:22.963Z,96.22
2019-02-20T04:59:23.923Z,96.59
2019-02-20T05:00:24.892Z,96.31
2019-02-20T05:01:24.875Z,96.59
2019-02-20T05:02:25.561Z,96.5
2019-02-20T05:03:25.816Z,96.03
2019-02-20T05:04:26.805Z,96.69
2019-02-20T05:05:27.491Z,96.22
2019-02-20T05:06:28.008Z,96.41
2019-02-20T05:07:28.317Z,96.22
2019-02-20T05:08:28.586Z,96.59
2019-02-20T05:09:29.067Z,96.78
2019-02-20T05:10:29.035Z,96.97
2019-02-20T05:11:30.104Z,95.84
2019-02-20T05:12:30.350Z,96.12
2019-02-20T05:13:30.888Z,95.84
2019-02-20T05:14:31.127Z,95.93
2019-02-20T05:15:31.564Z,96.17
2019-02-20T05:16:31.991Z,95.55
2019-02-20T05:17:32.254Z,95.12
2019-02-20T05:18:32.973Z,95.12
2019-02-20T05:19:33.594Z,94.56
2019-02-20T05:20:34.301Z,94.37
2019-02-20T05:21:35.571Z,94.37
2019-02-20T05:22:35.723Z,94.37
2019-02-20T05:23:36.719Z,94.56
2019-02-20T05:24:37.178Z,93.7
2019-02-20T05:25:38.011Z,93.13
2019-02-20T05:26:37.896Z,94.08
2019-02-20T05:27:39.456Z,94.08
2019-02-20T05:28:39.429Z,94.56
2019-02-20T05:29:40.434Z,94.56
2019-02-20T05:30:41.681Z,94.08
2019-02-20T05:31:41.939Z,93.89
2019-02-20T05:32:42.205Z,93.61
2019-02-20T05:33:43.178Z,93.04
2019-02-20T05:34:44.142Z,93.51
2019-02-20T05:35:44.859Z,93.51
2019-02-20T05:36:45.449Z,93.61
2019-02-20T05:37:46.857Z,93.89
2019-02-20T05:38:48.104Z,93.99
2019-02-20T05:39:48.511Z,94.37
2019-02-20T05:40:49.778Z,93.8
2019-02-20T05:41:50.742Z,94.46
2019-02-20T05:42:51.282Z,94.37
2019-02-20T05:43:51.843Z,93.61
2019-02-20T05:44:52.544Z,93.23
2019-02-20T05:45:53.290Z,93.51
2019-02-20T05:46:54.862Z,92.94
2019-02-20T05:47:55.581Z,93.51
2019-02-20T05:48:55.998Z,93.61
2019-02-20T05:49:56.540Z,93.8
2019-02-20T05:50:57.529Z,93.7
2019-02-20T05:51:58.784Z,93.61
2019-02-20T05:52:58.770Z,93.7
2019-02-20T05:54:00.024Z,92.85
2019-02-20T05:55:00.029Z,93.23
2019-02-20T05:56:00.610Z,92.85
2019-02-20T05:57:01.761Z,93.13
2019-02-20T05:58:02.452Z,93.42
2019-02-20T05:59:03.073Z,93.13
2019-02-20T06:00:03.764Z,93.32
2019-02-20T06:01:04.387Z,93.42
2019-02-20T06:02:04.821Z,93.99
2019-02-20T06:03:06.208Z,94.84
2019-02-20T06:04:06.985Z,94.27
2019-02-20T06:05:07.588Z,94.93
2019-02-20T06:06:08.731Z,94.56
2019-02-20T06:07:09.417Z,94.93
2019-02-20T06:08:10.124Z,95.5
2019-02-20T06:09:10.573Z,95.55
2019-02-20T06:10:11.559Z,95.84
2019-02-20T06:11:16.207Z,96.12
2019-02-20T06:12:17.477Z,96.22
2019-02-20T06:13:17.436Z,96.03
2019-02-20T06:14:18.443Z,96.69
2019-02-20T06:15:19.338Z,96.69
2019-02-20T06:16:20.020Z,96.88
2019-02-20T06:17:20.737Z,97.54
2019-02-20T06:18:22.532Z,97.92
2019-02-20T06:19:23.271Z,98.58
2019-02-20T06:20:24.281Z,98.21
2019-02-20T06:21:25.973Z,98.58
2019-02-20T06:22:26.166Z,98.87
2019-02-20T06:23:27.267Z,98.3
2019-02-20T06:24:28.693Z,98.58
2019-02-20T06:25:29.475Z,98.21
2019-02-20T06:26:29.999Z,97.45
2019-02-20T06:27:30.655Z,97.45
2019-02-20T06:28:30.809Z,97.64
2019-02-20T06:29:31.775Z,97.64
2019-02-20T06:30:32.388Z,97.54
2019-02-20T06:31:32.634Z,98.21
2019-02-20T06:32:33.050Z,97.64
2019-02-20T06:33:33.593Z,97.92
2019-02-20T06:34:34.635Z,97.45
2019-02-20T06:35:35.326Z,97.35
2019-02-20T06:36:36.308Z,96.69
2019-02-20T06:37:37.849Z,96.97
2019-02-20T06:38:38.722Z,96.22
2019-02-20T06:39:39.129Z,96.78
2019-02-20T06:40:40.113Z,96.69
2019-02-20T06:41:40.743Z,97.07
2019-02-20T06:42:41.426Z,97.54
2019-02-20T06:43:43.275Z,98.21
2019-02-20T06:44:44.097Z,98.39
2019-02-20T06:45:44.233Z,98.11
2019-02-20T06:46:44.883Z,99.15
2019-02-20T06:47:45.774Z,99.15
2019-02-20T06:48:45.742Z,99.44
2019-02-20T06:49:47.154Z,99.63
2019-02-20T06:50:48.034Z,99.82
2019-02-20T06:51:48.725Z,99.44
2019-02-20T06:52:49.148Z,99.63
2019-02-20T06:53:49.578Z,99.72
2019-02-20T06:54:54.929Z,99.91
2019-02-20T06:55:02.788Z,99.99
2019-02-20T06:56:03.249Z,99.63
2019-02-20T06:57:03.995Z,99.72
2019-02-20T06:58:04.261Z,98.96
2019-02-20T06:59:06.297Z,98.58
2019-02-20T07:00:05.828Z,98.96
2019-02-20T07:01:06.014Z,98.96
2019-02-20T07:02:06.772Z,99.06
2019-02-20T07:03:07.368Z,98.96
2019-02-20T07:04:08.320Z,99.44
2019-02-20T07:05:09.302Z,99.82
2019-02-20T07:06:09.807Z,99.63
2019-02-20T07:07:10.220Z,99.63
2019-02-20T07:08:10.911Z,99.44
2019-02-20T07:09:11.916Z,99.91
2019-02-20T07:10:13.326Z,99.82
2019-02-20T07:11:16.647Z,99.99
2019-02-20T07:12:16.342Z,99.99
2019-02-20T07:13:17.644Z,99.99
2019-02-20T07:14:19.265Z,99.99
2019-02-20T07:15:21.092Z,99.99
2019-02-20T07:16:20.904Z,99.99
2019-02-20T07:17:21.566Z,99.99
2019-02-20T07:18:21.652Z,99.99
2019-02-20T07:19:22.343Z,99.99
2019-02-20T07:20:23.322Z,99.99
2019-02-20T07:21:23.739Z,99.99
2019-02-20T07:22:24.550Z,99.99
2019-02-20T07:23:27.019Z,99.99
2019-02-20T07:24:26.330Z,99.99
2019-02-20T07:25:27.168Z,99.99
2019-02-20T07:26:28.312Z,99.99
2019-02-20T07:27:29.020Z,99.99
2019-02-20T07:28:29.712Z,99.99
2019-02-20T07:29:30.994Z,99.99
2019-02-20T07:30:31.979Z,99.99
2019-02-20T07:31:32.671Z,99.99
2019-02-20T07:32:34.209Z,99.99
2019-02-20T07:33:34.302Z,99.99
2019-02-20T07:34:35.605Z,99.99
2019-02-20T07:35:35.891Z,99.99
2019-02-20T07:36:36.681Z,99.99
2019-02-20T07:37:37.401Z,99.99
2019-02-20T07:38:38.414Z,99.99
2019-02-20T07:39:39.182Z,99.99
2019-02-20T07:40:39.178Z,99.99
2019-02-20T07:41:40.411Z,99.99
2019-02-20T07:42:41.112Z,99.99
2019-02-20T07:43:42.106Z,99.99
2019-02-20T07:44:42.262Z,99.99
2019-02-20T07:45:43.327Z,99.99
2019-02-20T07:46:43.532Z,99.99
2019-02-20T07:47:44.512Z,99.99
2019-02-20T07:48:44.204Z,99.99
2019-02-20T07:49:44.687Z,99.99
2019-02-20T07:50:45.689Z,99.99
2019-02-20T07:51:46.117Z,99.99
2019-02-20T07:52:47.406Z,99.99
2019-02-20T07:53:47.495Z,99.99
2019-02-20T07:54:47.958Z,99.99
2019-02-20T07:55:48.659Z,99.99
2019-02-20T07:56:48.596Z,99.99
2019-02-20T07:57:49.594Z,99.99
2019-02-20T07:58:50.965Z,99.99
2019-02-20T07:59:51.941Z,99.99
2019-02-20T08:00:52.719Z,99.99
2019-02-20T08:01:53.313Z,99.99
2019-02-20T08:02:54.573Z,99.99
2019-02-20T08:03:55.381Z,99.99
2019-02-20T08:04:55.822Z,99.99
2019-02-20T08:05:56.835Z,99.99
2019-02-20T08:06:58.059Z,99.99
2019-02-20T08:08:00.523Z,99.99
2019-02-20T08:08:12.419Z,99.99
2019-02-20T08:08:25.503Z,99.99
2019-02-20T08:08:37.673Z,99.99
2019-02-20T08:08:48.080Z,99.99
2019-02-20T08:09:48.574Z,99.99
2019-02-20T08:10:48.828Z,99.99
2019-02-20T08:11:49.985Z,99.99
2019-02-20T08:12:51.188Z,99.99
2019-02-20T08:13:51.752Z,99.99
2019-02-20T08:14:52.448Z,99.99
2019-02-20T08:15:53.414Z,99.99
2019-02-20T08:16:54.414Z,99.99
2019-02-20T08:17:55.383Z,99.99
2019-02-20T08:18:56.134Z,99.99
2019-02-20T08:19:57.555Z,99.99
2019-02-20T08:20:58.294Z,99.99
2019-02-20T08:21:59.721Z,99.99
2019-02-20T08:23:00.633Z,99.99
2019-02-20T08:24:01.264Z,99.99
2019-02-20T08:25:01.627Z,99.99
2019-02-20T08:26:02.621Z,99.99
2019-02-20T08:27:03.513Z,99.99
2019-02-20T08:28:03.865Z,99.99
2019-02-20T08:29:04.985Z,99.99
2019-02-20T08:30:06.339Z,99.99
2019-02-20T08:31:07.142Z,99.99
2019-02-20T08:32:07.841Z,99.99
2019-02-20T08:33:08.530Z,99.99
2019-02-20T08:34:09.666Z,99.99
2019-02-20T08:35:09.921Z,99.99
2019-02-20T08:36:10.894Z,99.99
2019-02-20T08:37:12.115Z,99.99
2019-02-20T08:38:11.875Z,99.99
2019-02-20T08:39:12.286Z,99.99
2019-02-20T08:40:12.665Z,99.99
2019-02-20T08:41:14.080Z,99.99
2019-02-20T08:42:14.550Z,99.99
2019-02-20T08:43:15.972Z,99.99
2019-02-20T08:44:15.975Z,99.99
2019-02-20T08:45:16.838Z,99.99
2019-02-20T08:46:17.864Z,99.99
2019-02-20T08:47:18.327Z,99.99
2019-02-20T08:48:19.553Z,99.99
2019-02-20T08:49:20.795Z,99.99
2019-02-20T08:50:22.470Z,99.99
2019-02-20T08:51:22.889Z,99.99
2019-02-20T08:52:25.330Z,99.99
2019-02-20T08:52:36.324Z,99.99
2019-02-20T08:53:36.518Z,99.99
2019-02-20T08:54:36.933Z,99.99
2019-02-20T08:55:37.761Z,99.99
2019-02-20T08:56:38.587Z,99.99
2019-02-20T08:57:39.618Z,99.99
2019-02-20T08:58:40.046Z,99.99
2019-02-20T08:59:41.461Z,99.99
2019-02-20T09:00:42.176Z,99.99
2019-02-20T09:01:44.015Z,99.99
2019-02-20T09:02:44.288Z,99.99
2019-02-20T09:03:45.390Z,99.99
2019-02-20T09:04:45.645Z,99.99
2019-02-20T09:05:47.051Z,99.99
2019-02-20T09:06:50.069Z,99.99
2019-02-20T09:07:01.674Z,99.99
2019-02-20T09:07:14.161Z,99.99
2019-02-20T09:08:12.481Z,99.99
2019-02-20T09:09:13.455Z,99.99
2019-02-20T09:10:13.874Z,99.99
2019-02-20T09:11:14.760Z,99.99
2019-02-20T09:12:15.341Z,99.74
2019-02-20T09:13:15.899Z,99.65
2019-02-20T09:14:16.678Z,98.6
2019-02-20T09:15:17.381Z,99.36
2019-02-20T09:16:18.488Z,99.99
2019-02-20T09:17:19.630Z,99.99
2019-02-20T09:18:20.483Z,99.99
2019-02-20T09:19:20.484Z,99.99
2019-02-20T09:20:21.188Z,99.99
2019-02-20T09:21:22.340Z,99.99
2019-02-20T09:22:22.896Z,99.99
2019-02-20T09:23:24.762Z,99.99
2019-02-20T09:24:24.757Z,99.99
2019-02-20T09:25:28.024Z,99.99
2019-02-20T09:26:27.839Z,99.99
2019-02-20T09:27:28.994Z,99.99
2019-02-20T09:28:29.027Z,99.99
2019-02-20T09:29:32.248Z,99.99
2019-02-20T09:30:31.365Z,99.99
2019-02-20T09:31:31.686Z,99.99
2019-02-20T09:32:32.673Z,99.99
2019-02-20T09:33:33.654Z,99.99
2019-02-20T09:34:35.139Z,99.99
2019-02-20T09:35:36.508Z,99.99
2019-02-20T09:36:36.647Z,99.99
2019-02-20T09:37:40.633Z,99.99
2019-02-20T09:37:51.343Z,99.99
2019-02-20T09:38:49.945Z,99.99
2019-02-20T09:39:50.361Z,99.99
2019-02-20T09:40:51.057Z,99.99
2019-02-20T09:41:51.480Z,99.41
2019-02-20T09:42:52.178Z,96.55
2019-02-20T09:43:52.991Z,96.27
2019-02-20T09:44:53.213Z,98.36
2019-02-20T09:45:55.051Z,99.51
2019-02-20T09:46:55.417Z,99.99
2019-02-20T09:47:55.490Z,99.99
2019-02-20T09:48:56.635Z,99.99
2019-02-20T09:49:57.648Z,99.99
2019-02-20T09:50:58.073Z,99.99
2019-02-20T09:51:59.068Z,98.79
2019-02-20T09:52:59.497Z,98.36
2019-02-20T09:54:00.474Z,97.7
2019-02-20T09:55:01.465Z,97.22
2019-02-20T09:56:02.565Z,97.41
2019-02-20T09:57:03.327Z,96.94
2019-02-20T09:58:03.581Z,96.46
2019-02-20T09:59:04.091Z,95.7
2019-02-20T10:00:08.205Z,95.22
2019-02-20T10:00:17.680Z,95.6
2019-02-20T10:01:21.556Z,95.22
2019-02-20T10:01:32.917Z,94.22
2019-02-20T10:02:31.433Z,93.93
2019-02-20T10:03:32.526Z,93.17
2019-02-20T10:04:32.960Z,92.79
2019-02-20T10:05:34.425Z,93.17
2019-02-20T10:06:35.124Z,92.6
2019-02-20T10:07:35.838Z,92.69
2019-02-20T10:08:37.027Z,90.89
2019-02-20T10:09:37.742Z,89.69
2019-02-20T10:10:38.315Z,88.74
2019-02-20T10:11:39.017Z,87.4
2019-02-20T10:12:40.109Z,85.06
2019-02-20T10:13:40.844Z,82.87
2019-02-20T10:14:42.106Z,82.01
2019-02-20T10:15:43.114Z,79.25
2019-02-20T10:16:43.374Z,78.39
2019-02-20T10:17:43.573Z,78.39
2019-02-20T10:18:47.910Z,77.95
2019-02-20T10:18:58.543Z,77.76
2019-02-20T10:19:57.063Z,77.47
2019-02-20T10:20:57.763Z,76.81
2019-02-20T10:22:02.101Z,74.13
2019-02-20T10:22:12.981Z,73.94
2019-02-20T10:23:15.071Z,72.99
2019-02-20T10:24:13.354Z,71.12
2019-02-20T10:25:14.069Z,70.29
2019-02-20T10:26:15.355Z,66.09
2019-02-20T10:27:16.772Z,64.47
2019-02-20T10:28:17.196Z,64.59
2019-02-20T10:29:18.386Z,62.52
2019-02-20T10:30:19.041Z,59.66
2019-02-20T10:31:20.060Z,58.61
2019-02-20T10:32:19.969Z,59.59
2019-02-20T10:33:23.233Z,58.15
2019-02-20T10:34:22.927Z,56.65
2019-02-20T10:35:23.408Z,55.22
2019-02-20T10:36:24.111Z,54.9
2019-02-20T10:37:25.111Z,55.29
2019-02-20T10:38:26.382Z,55.22
2019-02-20T10:39:27.669Z,54.55
2019-02-20T10:40:28.373Z,54.16
2019-02-20T10:41:29.078Z,54.16
2019-02-20T10:42:29.646Z,55.51
2019-02-20T10:43:30.423Z,54.28
2019-02-20T10:44:31.441Z,53.33
2019-02-20T10:45:32.589Z,51.82
2019-02-20T10:46:33.298Z,50.87
2019-02-20T10:47:33.733Z,50.77
2019-02-20T10:48:34.635Z,50
2019-02-20T10:49:36.875Z,49.16
2019-02-20T10:50:36.592Z,49.05
2019-02-20T10:51:37.742Z,48.4
2019-02-20T10:52:38.453Z,49.07
2019-02-20T10:53:41.402Z,48.11
2019-02-20T10:54:40.713Z,48.38
2019-02-20T10:55:41.437Z,48.95
2019-02-20T10:56:42.347Z,49.14
2019-02-20T10:57:42.895Z,48.95
2019-02-20T10:58:43.882Z,48.95
2019-02-20T10:59:44.585Z,48.95
2019-02-20T11:00:45.054Z,49.52
2019-02-20T11:01:45.479Z,49.14
2019-02-20T11:02:46.472Z,48.85
2019-02-20T11:03:47.654Z,48.95
2019-02-20T11:04:52.477Z,49.43
2019-02-20T11:05:05.049Z,49.52
2019-02-20T11:05:16.320Z,49.62
2019-02-20T11:05:29.504Z,49.71
2019-02-20T11:05:40.204Z,49.81
2019-02-20T11:06:40.382Z,50.38
2019-02-20T11:07:40.130Z,50.48
2019-02-20T11:08:41.414Z,50.67
2019-02-20T11:09:42.583Z,50.67
2019-02-20T11:10:42.115Z,50.77
2019-02-20T11:11:42.615Z,51.06
2019-02-20T11:12:43.598Z,50.67
2019-02-20T11:13:44.795Z,50.38
2019-02-20T11:14:45.258Z,50.74
2019-02-20T11:15:46.191Z,51.97
2019-02-20T11:16:49.563Z,52.73
2019-02-20T11:17:00.652Z,52.92
2019-02-20T11:17:58.978Z,52.73
2019-02-20T11:18:59.462Z,52.73
2019-02-20T11:20:00.263Z,52.73
2019-02-20T11:21:01.900Z,52.47
2019-02-20T11:22:02.609Z,52.18
2019-02-20T11:23:03.050Z,52.83
2019-02-20T11:24:03.478Z,53.2
2019-02-20T11:25:04.576Z,53.49
2019-02-20T11:26:06.214Z,53.49
2019-02-20T11:27:06.921Z,53.78
2019-02-20T11:28:07.112Z,54.52
2019-02-20T11:29:07.973Z,54.52
2019-02-20T11:30:08.398Z,54.71
2019-02-20T11:31:09.440Z,55.1
2019-02-20T11:32:12.899Z,55.45
2019-02-20T11:33:12.276Z,56.69
2019-02-20T11:34:12.697Z,58.12
2019-02-20T11:35:13.680Z,58.19
2019-02-20T11:36:18.436Z,58.95
2019-02-20T11:36:29.730Z,58.98
2019-02-20T11:37:27.814Z,57.65
2019-02-20T11:38:33.404Z,57.84
2019-02-20T11:38:41.109Z,57.93
2019-02-20T11:39:42.554Z,57.93
2019-02-20T11:40:41.833Z,57.65
2019-02-20T11:41:43.791Z,56.98
2019-02-20T11:42:44.356Z,58.15
2019-02-20T11:43:45.343Z,57.68
2019-02-20T11:44:46.114Z,59.2
2019-02-20T11:45:49.903Z,58.15
2019-02-20T11:46:48.498Z,57.61
2019-02-20T11:47:49.890Z,55.31
2019-02-20T11:48:50.065Z,54.93
2019-02-20T11:49:50.495Z,54.74
2019-02-20T11:50:52.381Z,54.07
2019-02-20T11:51:52.807Z,53.88
2019-02-20T11:52:56.623Z,55.02
2019-02-20T11:53:06.348Z,54.9
2019-02-20T11:54:06.182Z,55.38
2019-02-20T11:55:06.622Z,55.57
2019-02-20T11:56:07.136Z,56.24
2019-02-20T11:57:11.276Z,56.24
2019-02-20T11:57:22.863Z,56.12
2019-02-20T11:58:22.060Z,56.21
2019-02-20T11:59:23.772Z,56.6
2019-02-20T12:00:23.760Z,56.88
2019-02-20T12:01:23.962Z,56.88
2019-02-20T12:02:26.709Z,57.46
2019-02-20T12:03:27.140Z,58.12
2019-02-20T12:04:27.938Z,58.03
2019-02-20T12:05:29.049Z,57.55
2019-02-20T12:06:28.924Z,58
2019-02-20T12:07:30.132Z,58.67
2019-02-20T12:08:30.721Z,58.76
2019-02-20T12:09:31.751Z,59.15
2019-02-20T12:10:32.172Z,58.22
2019-02-20T12:11:32.883Z,57.84
2019-02-20T12:12:34.431Z,57.46
2019-02-20T12:13:34.863Z,58.12
2019-02-20T12:14:35.803Z,57.75
2019-02-20T12:15:36.239Z,58.61
2019-02-20T12:16:37.664Z,58.03
2019-02-20T12:17:38.645Z,58.22
2019-02-20T12:18:24.300Z,58.7
2019-02-20T12:19:24.506Z,60.01
2019-02-20T12:20:25.225Z,60.13
2019-02-20T12:21:26.276Z,58.89
2019-02-20T12:22:26.543Z,58.32
2019-02-20T12:23:36.352Z,58.15
2019-02-20T12:23:40.636Z,58.06
2019-02-20T12:24:44.778Z,57.2
2019-02-20T12:24:57.100Z,56.84
2019-02-20T12:25:07.567Z,57.04
2019-02-20T12:25:19.557Z,56.65
2019-02-20T12:26:22.092Z,55.88
2019-02-20T12:26:35.760Z,56.53
2019-02-20T12:27:31.051Z,56.91
2019-02-20T12:28:31.597Z,57.87
2019-02-20T12:29:32.750Z,58.03
2019-02-20T12:30:33.750Z,58.51
2019-02-20T12:31:34.746Z,58.89
2019-02-20T12:32:34.533Z,59.47
2019-02-20T12:33:35.244Z,60.3
2019-02-20T12:34:36.543Z,60.52
2019-02-20T12:35:38.453Z,60.39
2019-02-20T12:36:41.240Z,60.87
2019-02-20T12:37:40.082Z,62.11
2019-02-20T12:38:40.724Z,62.49
2019-02-20T12:39:41.447Z,63.16
2019-02-20T12:40:42.151Z,63.13